Terminal Aerodrome Forecast
Issued by NWS Sterling, VA

Current Version | Previous Version | Text Only | Print | Product List | Glossary Off
Versions: 1 2 3 4 5 6 7 8 9 10 11 12 13 14 15 16 17 18 19 20 21 22 23 24 25 26 27

928
FTUS41 KLWX 171120
TAFDCA
TAF
KDCA 171120Z 1712/1812 VRB03KT P6SM VCSH BKN012 OVC060
     FM171400 17004KT 4SM -SHRA BR OVC012
     FM172100 19007KT P6SM BKN015
     FM180000 19006KT P6SM BKN008
     FM180600 24006KT P6SM BKN025
     FM180900 28005KT P6SM BKN035=

USA.gov is the U.S. government's official web portal to all federal, state and local government web resources and services.